sensor_id;sensor_type;location;lat;lon;timestamp;pressure;altitude;pressure_sealevel;temperature
79089;BMP280;68489;50.286;9.452;2023-03-23T00:02:30;96600.38;;;12.84
79089;BMP280;68489;50.286;9.452;2023-03-23T00:04:57;96605.91;;;12.81
79089;BMP280;68489;50.286;9.452;2023-03-23T00:07:25;96595.44;;;12.77
79089;BMP280;68489;50.286;9.452;2023-03-23T00:09:53;96599.09;;;12.80
79089;BMP280;68489;50.286;9.452;2023-03-23T00:12:21;96592.13;;;12.82
79089;BMP280;68489;50.286;9.452;2023-03-23T00:15:01;96598.72;;;12.87
79089;BMP280;68489;50.286;9.452;2023-03-23T00:17:28;96598.97;;;12.89
79089;BMP280;68489;50.286;9.452;2023-03-23T00:19:53;96599.66;;;12.84
79089;BMP280;68489;50.286;9.452;2023-03-23T00:22:18;96600.31;;;12.79
79089;BMP280;68489;50.286;9.452;2023-03-23T00:24:47;96600.03;;;12.77
79089;BMP280;68489;50.286;9.452;2023-03-23T00:27:13;96602.50;;;12.80
79089;BMP280;68489;50.286;9.452;2023-03-23T00:29:39;96596.09;;;12.72
79089;BMP280;68489;50.286;9.452;2023-03-23T00:32:05;96598.03;;;12.72
79089;BMP280;68489;50.286;9.452;2023-03-23T00:34:31;96599.78;;;12.75
79089;BMP280;68489;50.286;9.452;2023-03-23T00:36:57;96589.97;;;12.66
79089;BMP280;68489;50.286;9.452;2023-03-23T00:39:24;96575.97;;;12.71
79089;BMP280;68489;50.286;9.452;2023-03-23T00:41:50;96573.97;;;12.66
79089;BMP280;68489;50.286;9.452;2023-03-23T00:44:16;96577.78;;;12.80
79089;BMP280;68489;50.286;9.452;2023-03-23T00:46:47;96571.50;;;12.83
79089;BMP280;68489;50.286;9.452;2023-03-23T00:49:16;96566.44;;;12.85
79089;BMP280;68489;50.286;9.452;2023-03-23T00:51:42;96561.28;;;13.02
79089;BMP280;68489;50.286;9.452;2023-03-23T00:54:08;96560.28;;;12.99
79089;BMP280;68489;50.286;9.452;2023-03-23T00:56:35;96563.94;;;13.02
79089;BMP280;68489;50.286;9.452;2023-03-23T00:59:00;96563.31;;;13.12
79089;BMP280;68489;50.286;9.452;2023-03-23T01:01:25;96568.59;;;13.07
79089;BMP280;68489;50.286;9.452;2023-03-23T01:03:51;96543.16;;;13.11
79089;BMP280;68489;50.286;9.452;2023-03-23T01:06:18;96550.25;;;13.14
79089;BMP280;68489;50.286;9.452;2023-03-23T01:08:43;96554.38;;;13.15
79089;BMP280;68489;50.286;9.452;2023-03-23T01:11:14;96551.91;;;13.12
79089;BMP280;68489;50.286;9.452;2023-03-23T01:13:41;96555.59;;;13.14
79089;BMP280;68489;50.286;9.452;2023-03-23T01:16:07;96556.56;;;13.17
79089;BMP280;68489;50.286;9.452;2023-03-23T01:18:33;96557.47;;;13.08
79089;BMP280;68489;50.286;9.452;2023-03-23T01:21:07;96539.19;;;13.01
79089;BMP280;68489;50.286;9.452;2023-03-23T01:23:34;96542.81;;;12.98
79089;BMP280;68489;50.286;9.452;2023-03-23T01:26:07;96526.84;;;13.04
79089;BMP280;68489;50.286;9.452;2023-03-23T01:28:36;96536.59;;;13.07
79089;BMP280;68489;50.286;9.452;2023-03-23T01:31:08;96522.19;;;12.99
79089;BMP280;68489;50.286;9.452;2023-03-23T01:33:34;96514.91;;;12.99
79089;BMP280;68489;50.286;9.452;2023-03-23T01:36:04;96522.88;;;12.94
79089;BMP280;68489;50.286;9.452;2023-03-23T01:38:31;96534.94;;;12.89
79089;BMP280;68489;50.286;9.452;2023-03-23T01:40:57;96520.94;;;12.94
79089;BMP280;68489;50.286;9.452;2023-03-23T01:43:22;96521.13;;;12.90
79089;BMP280;68489;50.286;9.452;2023-03-23T01:45:47;96521.81;;;12.85
79089;BMP280;68489;50.286;9.452;2023-03-23T01:48:17;96522.09;;;12.87
79089;BMP280;68489;50.286;9.452;2023-03-23T01:50:52;96515.00;;;12.84
79089;BMP280;68489;50.286;9.452;2023-03-23T01:53:19;96510.06;;;12.77
79089;BMP280;68489;50.286;9.452;2023-03-23T01:55:47;96503.81;;;12.80
79089;BMP280;68489;50.286;9.452;2023-03-23T01:58:17;96494.41;;;12.85
79089;BMP280;68489;50.286;9.452;2023-03-23T02:00:44;96497.28;;;12.81
79089;BMP280;68489;50.286;9.452;2023-03-23T02:03:11;96503.53;;;12.78
79089;BMP280;68489;50.286;9.452;2023-03-23T02:05:40;96509.16;;;12.80
79089;BMP280;68489;50.286;9.452;2023-03-23T02:08:07;96515.78;;;12.90
79089;BMP280;68489;50.286;9.452;2023-03-23T02:10:35;96525.53;;;12.94
79089;BMP280;68489;50.286;9.452;2023-03-23T02:13:03;96532.75;;;12.87
79089;BMP280;68489;50.286;9.452;2023-03-23T02:15:43;96519.69;;;12.89
79089;BMP280;68489;50.286;9.452;2023-03-23T02:18:31;96507.97;;;12.81
79089;BMP280;68489;50.286;9.452;2023-03-23T02:27:03;96512.59;;;12.86
79089;BMP280;68489;50.286;9.452;2023-03-23T02:35:10;96512.41;;;12.90
79089;BMP280;68489;50.286;9.452;2023-03-23T02:37:40;96513.84;;;12.91
79089;BMP280;68489;50.286;9.452;2023-03-23T02:40:19;96514.88;;;12.94
79089;BMP280;68489;50.286;9.452;2023-03-23T02:42:48;96526.31;;;13.00
79089;BMP280;68489;50.286;9.452;2023-03-23T02:45:16;96504.38;;;12.90
79089;BMP280;68489;50.286;9.452;2023-03-23T02:47:43;96514.06;;;12.87
79089;BMP280;68489;50.286;9.452;2023-03-23T02:50:12;96505.59;;;12.89
79089;BMP280;68489;50.286;9.452;2023-03-23T02:52:39;96502.72;;;12.93
79089;BMP280;68489;50.286;9.452;2023-03-23T02:55:06;96494.44;;;12.90
79089;BMP280;68489;50.286;9.452;2023-03-23T02:57:32;96483.34;;;12.98
79089;BMP280;68489;50.286;9.452;2023-03-23T02:59:57;96473.59;;;12.89
79089;BMP280;68489;50.286;9.452;2023-03-23T03:02:32;96473.84;;;12.91
79089;BMP280;68489;50.286;9.452;2023-03-23T03:10:08;96485.34;;;12.77
79089;BMP280;68489;50.286;9.452;2023-03-23T03:13:01;96486.75;;;12.72
79089;BMP280;68489;50.286;9.452;2023-03-23T03:15:37;96472.91;;;12.68
79089;BMP280;68489;50.286;9.452;2023-03-23T03:18:26;96487.06;;;12.80
79089;BMP280;68489;50.286;9.452;2023-03-23T03:20:57;96476.06;;;12.72
79089;BMP280;68489;50.286;9.452;2023-03-23T03:23:25;96479.63;;;12.63
79089;BMP280;68489;50.286;9.452;2023-03-23T03:25:52;96474.28;;;12.63
79089;BMP280;68489;50.286;9.452;2023-03-23T03:28:20;96472.81;;;12.62
79089;BMP280;68489;50.286;9.452;2023-03-23T03:30:51;96468.16;;;12.57
79089;BMP280;68489;50.286;9.452;2023-03-23T03:33:16;96484.22;;;12.63
79089;BMP280;68489;50.286;9.452;2023-03-23T03:35:43;96487.91;;;12.45
79089;BMP280;68489;50.286;9.452;2023-03-23T03:38:10;96495.09;;;12.19
79089;BMP280;68489;50.286;9.452;2023-03-23T03:40:36;96493.78;;;11.94
79089;BMP280;68489;50.286;9.452;2023-03-23T03:43:02;96502.47;;;11.59
79089;BMP280;68489;50.286;9.452;2023-03-23T03:45:28;96501.56;;;11.32
79089;BMP280;68489;50.286;9.452;2023-03-23T03:47:53;96500.44;;;11.09
79089;BMP280;68489;50.286;9.452;2023-03-23T03:50:18;96500.25;;;10.98
79089;BMP280;68489;50.286;9.452;2023-03-23T03:52:44;96494.50;;;10.76
79089;BMP280;68489;50.286;9.452;2023-03-23T03:55:10;96498.09;;;10.73
79089;BMP280;68489;50.286;9.452;2023-03-23T03:57:36;96512.28;;;10.70
79089;BMP280;68489;50.286;9.452;2023-03-23T04:00:03;96502.75;;;10.63
79089;BMP280;68489;50.286;9.452;2023-03-23T04:02:39;96506.63;;;10.53
79089;BMP280;68489;50.286;9.452;2023-03-23T04:05:05;96497.59;;;10.35
79089;BMP280;68489;50.286;9.452;2023-03-23T04:07:31;96492.66;;;10.19
79089;BMP280;68489;50.286;9.452;2023-03-23T04:09:56;96493.88;;;10.09
79089;BMP280;68489;50.286;9.452;2023-03-23T04:12:21;96498.34;;;10.03
79089;BMP280;68489;50.286;9.452;2023-03-23T04:14:48;96500.91;;;9.97
79089;BMP280;68489;50.286;9.452;2023-03-23T04:17:13;96496.63;;;9.91
79089;BMP280;68489;50.286;9.452;2023-03-23T04:19:39;96497.69;;;9.84
79089;BMP280;68489;50.286;9.452;2023-03-23T04:22:05;96496.38;;;9.79
79089;BMP280;68489;50.286;9.452;2023-03-23T04:24:31;96504.50;;;9.76
79089;BMP280;68489;50.286;9.452;2023-03-23T04:26:58;96505.09;;;9.71
79089;BMP280;68489;50.286;9.452;2023-03-23T04:29:24;96517.94;;;9.63
79089;BMP280;68489;50.286;9.452;2023-03-23T04:31:49;96512.06;;;9.59
79089;BMP280;68489;50.286;9.452;2023-03-23T04:34:15;96518.25;;;9.56
79089;BMP280;68489;50.286;9.452;2023-03-23T04:36:41;96516.06;;;9.54
79089;BMP280;68489;50.286;9.452;2023-03-23T04:39:07;96517.41;;;9.50
79089;BMP280;68489;50.286;9.452;2023-03-23T04:41:38;96510.59;;;9.49
79089;BMP280;68489;50.286;9.452;2023-03-23T04:44:04;96500.88;;;9.46
79089;BMP280;68489;50.286;9.452;2023-03-23T04:46:32;96505.91;;;9.44
79089;BMP280;68489;50.286;9.452;2023-03-23T04:48:58;96506.47;;;9.48
79089;BMP280;68489;50.286;9.452;2023-03-23T04:51:24;96509.72;;;9.52
79089;BMP280;68489;50.286;9.452;2023-03-23T04:53:51;96507.78;;;9.61
79089;BMP280;68489;50.286;9.452;2023-03-23T04:56:16;96503.22;;;9.62
79089;BMP280;68489;50.286;9.452;2023-03-23T04:58:42;96502.78;;;9.63
79089;BMP280;68489;50.286;9.452;2023-03-23T05:01:08;96511.75;;;9.66
79089;BMP280;68489;50.286;9.452;2023-03-23T05:03:34;96514.41;;;9.66
79089;BMP280;68489;50.286;9.452;2023-03-23T05:06:01;96513.84;;;9.62
79089;BMP280;68489;50.286;9.452;2023-03-23T05:08:27;96518.41;;;9.61
79089;BMP280;68489;50.286;9.452;2023-03-23T05:10:54;96518.84;;;9.60
79089;BMP280;68489;50.286;9.452;2023-03-23T05:13:20;96520.03;;;9.59
79089;BMP280;68489;50.286;9.452;2023-03-23T05:15:46;96527.25;;;9.58
79089;BMP280;68489;50.286;9.452;2023-03-23T05:18:11;96537.41;;;9.60
79089;BMP280;68489;50.286;9.452;2023-03-23T05:20:37;96537.88;;;9.58
79089;BMP280;68489;50.286;9.452;2023-03-23T05:23:03;96545.09;;;9.58
79089;BMP280;68489;50.286;9.452;2023-03-23T05:25:30;96533.72;;;9.57
79089;BMP280;68489;50.286;9.452;2023-03-23T05:27:55;96541.69;;;9.57
79089;BMP280;68489;50.286;9.452;2023-03-23T05:30:21;96544.78;;;9.56
79089;BMP280;68489;50.286;9.452;2023-03-23T05:32:48;96541.69;;;9.57
79089;BMP280;68489;50.286;9.452;2023-03-23T05:35:16;96542.41;;;9.67
79089;BMP280;68489;50.286;9.452;2023-03-23T05:37:42;96543.75;;;9.72
79089;BMP280;68489;50.286;9.452;2023-03-23T05:40:08;96536.34;;;9.76
79089;BMP280;68489;50.286;9.452;2023-03-23T05:42:34;96539.72;;;9.76
79089;BMP280;68489;50.286;9.452;2023-03-23T05:45:02;96536.34;;;9.76
79089;BMP280;68489;50.286;9.452;2023-03-23T05:47:27;96531.22;;;9.72
79089;BMP280;68489;50.286;9.452;2023-03-23T05:49:53;96538.69;;;9.74
79089;BMP280;68489;50.286;9.452;2023-03-23T05:52:19;96548.59;;;9.73
79089;BMP280;68489;50.286;9.452;2023-03-23T05:54:45;96539.03;;;9.67
79089;BMP280;68489;50.286;9.452;2023-03-23T05:57:11;96551.00;;;9.62
79089;BMP280;68489;50.286;9.452;2023-03-23T05:59:36;96533.59;;;9.61
79089;BMP280;68489;50.286;9.452;2023-03-23T06:02:02;96547.31;;;9.59
79089;BMP280;68489;50.286;9.452;2023-03-23T06:04:28;96543.03;;;9.62
79089;BMP280;68489;50.286;9.452;2023-03-23T06:06:53;96541.69;;;9.67
79089;BMP280;68489;50.286;9.452;2023-03-23T06:09:18;96537.13;;;9.67
79089;BMP280;68489;50.286;9.452;2023-03-23T06:11:44;96557.75;;;9.63
79089;BMP280;68489;50.286;9.452;2023-03-23T06:14:09;96554.38;;;9.62
79089;BMP280;68489;50.286;9.452;2023-03-23T06:16:35;96557.03;;;9.62
79089;BMP280;68489;50.286;9.452;2023-03-23T06:19:00;96553.66;;;9.62
79089;BMP280;68489;50.286;9.452;2023-03-23T06:21:26;96552.47;;;9.63
79089;BMP280;68489;50.286;9.452;2023-03-23T06:23:53;96558.34;;;9.67
79089;BMP280;68489;50.286;9.452;2023-03-23T06:26:19;96561.31;;;9.69
79089;BMP280;68489;50.286;9.452;2023-03-23T06:28:45;96569.25;;;9.69
79089;BMP280;68489;50.286;9.452;2023-03-23T06:31:11;96577.97;;;9.70
79089;BMP280;68489;50.286;9.452;2023-03-23T06:33:37;96583.28;;;9.70
79089;BMP280;68489;50.286;9.452;2023-03-23T06:36:03;96578.69;;;9.70
79089;BMP280;68489;50.286;9.452;2023-03-23T06:38:29;96589.63;;;9.72
79089;BMP280;68489;50.286;9.452;2023-03-23T06:40:55;96579.00;;;9.72
79089;BMP280;68489;50.286;9.452;2023-03-23T06:43:21;96580.00;;;9.75
79089;BMP280;68489;50.286;9.452;2023-03-23T06:45:46;96581.66;;;9.72
79089;BMP280;68489;50.286;9.452;2023-03-23T06:48:11;96588.72;;;9.75
79089;BMP280;68489;50.286;9.452;2023-03-23T06:50:37;96583.25;;;9.79
79089;BMP280;68489;50.286;9.452;2023-03-23T06:53:02;96589.44;;;9.76
79089;BMP280;68489;50.286;9.452;2023-03-23T06:55:28;96592.81;;;9.76
79089;BMP280;68489;50.286;9.452;2023-03-23T06:57:53;96588.25;;;9.77
79089;BMP280;68489;50.286;9.452;2023-03-23T07:00:18;96577.19;;;9.78
79089;BMP280;68489;50.286;9.452;2023-03-23T07:02:43;96571.75;;;9.82
79089;BMP280;68489;50.286;9.452;2023-03-23T07:05:10;96573.19;;;9.92
79089;BMP280;68489;50.286;9.452;2023-03-23T07:07:37;96573.75;;;9.96
79089;BMP280;68489;50.286;9.452;2023-03-23T07:10:03;96571.97;;;10.02
79089;BMP280;68489;50.286;9.452;2023-03-23T07:12:29;96573.44;;;10.03
79089;BMP280;68489;50.286;9.452;2023-03-23T07:14:55;96570.63;;;10.16
79089;BMP280;68489;50.286;9.452;2023-03-23T07:17:20;96575.28;;;10.21
79089;BMP280;68489;50.286;9.452;2023-03-23T07:19:46;96572.06;;;10.17
79089;BMP280;68489;50.286;9.452;2023-03-23T07:22:11;96571.91;;;10.21
79089;BMP280;68489;50.286;9.452;2023-03-23T07:24:37;96566.16;;;10.22
79089;BMP280;68489;50.286;9.452;2023-03-23T07:27:02;96561.28;;;10.21
79089;BMP280;68489;50.286;9.452;2023-03-23T07:29:27;96577.09;;;10.24
79089;BMP280;68489;50.286;9.452;2023-03-23T07:31:53;96587.38;;;10.31
79089;BMP280;68489;50.286;9.452;2023-03-23T07:34:19;96597.38;;;10.36
79089;BMP280;68489;50.286;9.452;2023-03-23T07:36:45;96591.94;;;10.31
79089;BMP280;68489;50.286;9.452;2023-03-23T07:39:11;96583.66;;;10.38
79089;BMP280;68489;50.286;9.452;2023-03-23T07:41:37;96589.25;;;10.40
79089;BMP280;68489;50.286;9.452;2023-03-23T07:44:02;96594.25;;;10.47
79089;BMP280;68489;50.286;9.452;2023-03-23T07:46:27;96592.78;;;10.46
79089;BMP280;68489;50.286;9.452;2023-03-23T07:48:53;96591.09;;;10.58
79089;BMP280;68489;50.286;9.452;2023-03-23T07:51:18;96593.13;;;10.63
79089;BMP280;68489;50.286;9.452;2023-03-23T07:53:44;96595.34;;;10.65
79089;BMP280;68489;50.286;9.452;2023-03-23T07:56:10;96608.19;;;10.66
79089;BMP280;68489;50.286;9.452;2023-03-23T07:58:37;96606.25;;;10.67
79089;BMP280;68489;50.286;9.452;2023-03-23T08:01:02;96618.56;;;10.79
79089;BMP280;68489;50.286;9.452;2023-03-23T08:03:28;96618.22;;;10.62
79089;BMP280;68489;50.286;9.452;2023-03-23T08:05:53;96612.59;;;10.60
79089;BMP280;68489;50.286;9.452;2023-03-23T08:08:18;96624.50;;;10.50
79089;BMP280;68489;50.286;9.452;2023-03-23T08:10:43;96631.44;;;10.47
79089;BMP280;68489;50.286;9.452;2023-03-23T08:13:09;96632.63;;;10.46
79089;BMP280;68489;50.286;9.452;2023-03-23T08:15:35;96637.78;;;10.50
79089;BMP280;68489;50.286;9.452;2023-03-23T08:18:02;96627.44;;;10.43
79089;BMP280;68489;50.286;9.452;2023-03-23T08:20:27;96637.50;;;10.48
79089;BMP280;68489;50.286;9.452;2023-03-23T08:22:54;96631.88;;;10.46
79089;BMP280;68489;50.286;9.452;2023-03-23T08:25:21;96637.19;;;10.55
79089;BMP280;68489;50.286;9.452;2023-03-23T08:27:47;96624.31;;;10.53
79089;BMP280;68489;50.286;9.452;2023-03-23T08:30:16;96624.50;;;10.50
79089;BMP280;68489;50.286;9.452;2023-03-23T08:32:42;96625.66;;;10.49
79089;BMP280;68489;50.286;9.452;2023-03-23T08:35:08;96633.91;;;10.51
79089;BMP280;68489;50.286;9.452;2023-03-23T08:37:35;96625.94;;;10.51
79089;BMP280;68489;50.286;9.452;2023-03-23T08:40:01;96637.19;;;10.55
79089;BMP280;68489;50.286;9.452;2023-03-23T08:42:32;96638.81;;;10.52
79089;BMP280;68489;50.286;9.452;2023-03-23T08:44:57;96639.56;;;10.44
79089;BMP280;68489;50.286;9.452;2023-03-23T08:47:23;96641.97;;;10.42
79089;BMP280;68489;50.286;9.452;2023-03-23T08:49:48;96640.25;;;10.53
79089;BMP280;68489;50.286;9.452;2023-03-23T08:52:17;96638.22;;;10.48
79089;BMP280;68489;50.286;9.452;2023-03-23T08:54:42;96645.78;;;10.41
79089;BMP280;68489;50.286;9.452;2023-03-23T08:57:12;96661.28;;;10.42
79089;BMP280;68489;50.286;9.452;2023-03-23T08:59:37;96657.59;;;10.40
79089;BMP280;68489;50.286;9.452;2023-03-23T09:02:02;96673.66;;;10.45
79089;BMP280;68489;50.286;9.452;2023-03-23T09:04:27;96675.78;;;10.41
79089;BMP280;68489;50.286;9.452;2023-03-23T09:06:55;96673.41;;;10.34
79089;BMP280;68489;50.286;9.452;2023-03-23T09:09:21;96681.09;;;10.32
79089;BMP280;68489;50.286;9.452;2023-03-23T09:11:46;96675.63;;;10.26
79089;BMP280;68489;50.286;9.452;2023-03-23T09:14:11;96680.50;;;10.28
79089;BMP280;68489;50.286;9.452;2023-03-23T09:16:37;96687.59;;;10.31
79089;BMP280;68489;50.286;9.452;2023-03-23T09:19:02;96679.63;;;10.31
79089;BMP280;68489;50.286;9.452;2023-03-23T09:21:28;96676.22;;;10.40
79089;BMP280;68489;50.286;9.452;2023-03-23T09:23:55;96669.84;;;10.46
79089;BMP280;68489;50.286;9.452;2023-03-23T09:26:24;96674.38;;;10.55
79089;BMP280;68489;50.286;9.452;2023-03-23T09:28:50;96660.34;;;10.54
79089;BMP280;68489;50.286;9.452;2023-03-23T09:31:17;96676.56;;;10.66
79089;BMP280;68489;50.286;9.452;2023-03-23T09:33:45;96669.03;;;10.64
79089;BMP280;68489;50.286;9.452;2023-03-23T09:36:11;96669.75;;;10.65
79089;BMP280;68489;50.286;9.452;2023-03-23T09:38:39;96676.81;;;10.68
79089;BMP280;68489;50.286;9.452;2023-03-23T09:41:39;96675.94;;;10.71
79089;BMP280;68489;50.286;9.452;2023-03-23T09:49:19;96659.69;;;10.69
79089;BMP280;68489;50.286;9.452;2023-03-23T09:52:02;96665.03;;;10.69
79089;BMP280;68489;50.286;9.452;2023-03-23T09:54:37;96671.94;;;10.75
79089;BMP280;68489;50.286;9.452;2023-03-23T09:57:05;96676.28;;;10.87
79089;BMP280;68489;50.286;9.452;2023-03-23T09:59:47;96674.81;;;10.86
79089;BMP280;68489;50.286;9.452;2023-03-23T10:02:27;96671.84;;;10.94
79089;BMP280;68489;50.286;9.452;2023-03-23T10:04:56;96677.84;;;11.03
79089;BMP280;68489;50.286;9.452;2023-03-23T10:07:25;96681.22;;;11.04
79089;BMP280;68489;50.286;9.452;2023-03-23T10:10:00;96676.22;;;11.06
79089;BMP280;68489;50.286;9.452;2023-03-23T10:20:42;96668.44;;;12.59
79089;BMP280;68489;50.286;9.452;2023-03-23T10:23:39;96672.00;;;13.58
79089;BMP280;68489;50.286;9.452;2023-03-23T10:26:57;96674.22;;;14.49
79089;BMP280;68489;50.286;9.452;2023-03-23T10:29:14;96668.47;;;15.38
79089;BMP280;68489;50.286;9.452;2023-03-23T10:31:46;96665.84;;;15.55
79089;BMP280;68489;50.286;9.452;2023-03-23T10:35:03;96660.22;;;15.47
79089;BMP280;68489;50.286;9.452;2023-03-23T10:37:30;96668.53;;;15.77
79089;BMP280;68489;50.286;9.452;2023-03-23T10:39:59;96657.28;;;15.51
79089;BMP280;68489;50.286;9.452;2023-03-23T10:42:30;96662.06;;;15.02
79089;BMP280;68489;50.286;9.452;2023-03-23T10:44:58;96658.56;;;14.79
79089;BMP280;68489;50.286;9.452;2023-03-23T10:47:24;96655.22;;;14.10
79089;BMP280;68489;50.286;9.452;2023-03-23T10:49:58;96661.13;;;14.19
79089;BMP280;68489;50.286;9.452;2023-03-23T10:52:36;96650.97;;;13.92
79089;BMP280;68489;50.286;9.452;2023-03-23T10:55:09;96662.16;;;13.96
79089;BMP280;68489;50.286;9.452;2023-03-23T10:57:37;96656.00;;;13.58
79089;BMP280;68489;50.286;9.452;2023-03-23T11:00:23;96659.47;;;13.18
79089;BMP280;68489;50.286;9.452;2023-03-23T11:05:42;96663.41;;;12.82
79089;BMP280;68489;50.286;9.452;2023-03-23T11:08:35;96681.28;;;12.76
79089;BMP280;68489;50.286;9.452;2023-03-23T11:11:25;96667.06;;;12.84
79089;BMP280;68489;50.286;9.452;2023-03-23T11:14:00;96681.50;;;12.93
79089;BMP280;68489;50.286;9.452;2023-03-23T11:16:33;96684.19;;;12.78
79089;BMP280;68489;50.286;9.452;2023-03-23T11:19:11;96695.19;;;12.65
79089;BMP280;68489;50.286;9.452;2023-03-23T11:21:39;96684.16;;;12.57
79089;BMP280;68489;50.286;9.452;2023-03-23T11:24:05;96681.88;;;12.35
79089;BMP280;68489;50.286;9.452;2023-03-23T11:26:33;96681.94;;;12.56
79089;BMP280;68489;50.286;9.452;2023-03-23T11:29:08;96686.72;;;12.67
79089;BMP280;68489;50.286;9.452;2023-03-23T11:31:40;96689.81;;;12.80
79089;BMP280;68489;50.286;9.452;2023-03-23T11:34:10;96687.84;;;12.95
79089;BMP280;68489;50.286;9.452;2023-03-23T11:36:40;96692.84;;;13.08
79089;BMP280;68489;50.286;9.452;2023-03-23T11:39:26;96687.16;;;13.00
79089;BMP280;68489;50.286;9.452;2023-03-23T11:41:53;96681.19;;;13.11
79089;BMP280;68489;50.286;9.452;2023-03-23T11:44:21;96689.44;;;13.28
79089;BMP280;68489;50.286;9.452;2023-03-23T11:46:54;96687.53;;;13.54
79089;BMP280;68489;50.286;9.452;2023-03-23T11:49:39;96692.75;;;13.69
79089;BMP280;68489;50.286;9.452;2023-03-23T11:52:21;96688.47;;;13.77
79089;BMP280;68489;50.286;9.452;2023-03-23T11:54:55;96686.69;;;13.94
79089;BMP280;68489;50.286;9.452;2023-03-23T11:57:21;96685.41;;;14.16
79089;BMP280;68489;50.286;9.452;2023-03-23T11:59:46;96689.03;;;14.50
79089;BMP280;68489;50.286;9.452;2023-03-23T12:04:44;96680.25;;;14.50
79089;BMP280;68489;50.286;9.452;2023-03-23T12:10:17;96674.44;;;14.94
79089;BMP280;68489;50.286;9.452;2023-03-23T12:13:12;96664.59;;;15.50
79089;BMP280;68489;50.286;9.452;2023-03-23T12:21:34;96669.19;;;17.80
79089;BMP280;68489;50.286;9.452;2023-03-23T12:29:51;96669.38;;;17.22
79089;BMP280;68489;50.286;9.452;2023-03-23T12:32:47;96653.84;;;17.75
79089;BMP280;68489;50.286;9.452;2023-03-23T12:40:39;96659.00;;;16.27
79089;BMP280;68489;50.286;9.452;2023-03-23T12:48:35;96661.69;;;14.66
79089;BMP280;68489;50.286;9.452;2023-03-23T12:51:11;96657.91;;;14.47
79089;BMP280;68489;50.286;9.452;2023-03-23T12:53:47;96649.09;;;14.41
79089;BMP280;68489;50.286;9.452;2023-03-23T12:56:26;96643.31;;;14.11
79089;BMP280;68489;50.286;9.452;2023-03-23T12:59:08;96641.38;;;14.06
79089;BMP280;68489;50.286;9.452;2023-03-23T13:01:42;96648.22;;;14.12
79089;BMP280;68489;50.286;9.452;2023-03-23T13:04:15;96642.59;;;14.10
79089;BMP280;68489;50.286;9.452;2023-03-23T13:06:44;96645.13;;;14.25
79089;BMP280;68489;50.286;9.452;2023-03-23T13:12:03;96646.78;;;14.17
79089;BMP280;68489;50.286;9.452;2023-03-23T13:14:37;96638.09;;;13.96
79089;BMP280;68489;50.286;9.452;2023-03-23T13:23:05;96631.47;;;13.86
79089;BMP280;68489;50.286;9.452;2023-03-23T13:25:47;96644.59;;;14.21
79089;BMP280;68489;50.286;9.452;2023-03-23T13:28:16;96643.19;;;14.26
79089;BMP280;68489;50.286;9.452;2023-03-23T13:30:53;96645.69;;;14.40
79089;BMP280;68489;50.286;9.452;2023-03-23T13:33:19;96627.81;;;14.63
79089;BMP280;68489;50.286;9.452;2023-03-23T13:35:45;96622.09;;;14.33
79089;BMP280;68489;50.286;9.452;2023-03-23T13:38:19;96634.31;;;14.45
79089;BMP280;68489;50.286;9.452;2023-03-23T13:40:46;96630.66;;;14.43
79089;BMP280;68489;50.286;9.452;2023-03-23T13:43:12;96616.00;;;14.38
79089;BMP280;68489;50.286;9.452;2023-03-23T13:45:47;96632.34;;;14.03
79089;BMP280;68489;50.286;9.452;2023-03-23T13:51:03;96636.75;;;14.06
79089;BMP280;68489;50.286;9.452;2023-03-23T13:53:35;96645.00;;;14.08
79089;BMP280;68489;50.286;9.452;2023-03-23T13:56:19;96638.09;;;13.96
79089;BMP280;68489;50.286;9.452;2023-03-23T13:58:50;96634.66;;;13.90
79089;BMP280;68489;50.286;9.452;2023-03-23T14:01:19;96629.31;;;13.64
79089;BMP280;68489;50.286;9.452;2023-03-23T14:03:48;96623.06;;;13.67
79089;BMP280;68489;50.286;9.452;2023-03-23T14:06:18;96627.41;;;13.64
79089;BMP280;68489;50.286;9.452;2023-03-23T14:08:48;96634.38;;;13.56
79089;BMP280;68489;50.286;9.452;2023-03-23T14:11:26;96624.31;;;13.46
79089;BMP280;68489;50.286;9.452;2023-03-23T14:13:59;96627.78;;;13.52
79089;BMP280;68489;50.286;9.452;2023-03-23T14:16:49;96621.03;;;13.56
79089;BMP280;68489;50.286;9.452;2023-03-23T14:19:21;96611.84;;;13.63
79089;BMP280;68489;50.286;9.452;2023-03-23T14:22:00;96613.09;;;13.62
79089;BMP280;68489;50.286;9.452;2023-03-23T14:24:40;96603.56;;;13.61
79089;BMP280;68489;50.286;9.452;2023-03-23T14:29:30;96618.19;;;13.39
79089;BMP280;68489;50.286;9.452;2023-03-23T14:31:57;96620.16;;;13.45
79089;BMP280;68489;50.286;9.452;2023-03-23T14:34:25;96623.50;;;13.34
79089;BMP280;68489;50.286;9.452;2023-03-23T14:36:53;96619.63;;;13.35
79089;BMP280;68489;50.286;9.452;2023-03-23T14:39:23;96617.78;;;13.47
79089;BMP280;68489;50.286;9.452;2023-03-23T14:41:50;96608.63;;;13.53
79089;BMP280;68489;50.286;9.452;2023-03-23T14:44:21;96615.78;;;13.41
79089;BMP280;68489;50.286;9.452;2023-03-23T14:46:48;96617.78;;;13.47
79089;BMP280;68489;50.286;9.452;2023-03-23T14:49:16;96622.53;;;13.37
79089;BMP280;68489;50.286;9.452;2023-03-23T14:51:51;96621.66;;;13.25
79089;BMP280;68489;50.286;9.452;2023-03-23T14:54:21;96618.50;;;13.47
79089;BMP280;68489;50.286;9.452;2023-03-23T14:56:47;96609.88;;;13.32
79089;BMP280;68489;50.286;9.452;2023-03-23T14:59:12;96605.88;;;13.22
79089;BMP280;68489;50.286;9.452;2023-03-23T15:01:40;96614.38;;;13.20
79089;BMP280;68489;50.286;9.452;2023-03-23T15:06:34;96611.41;;;13.18
79089;BMP280;68489;50.286;9.452;2023-03-23T15:09:01;96609.72;;;13.15
79089;BMP280;68489;50.286;9.452;2023-03-23T15:11:30;96609.03;;;13.20
79089;BMP280;68489;50.286;9.452;2023-03-23T15:13:58;96611.00;;;13.25
79089;BMP280;68489;50.286;9.452;2023-03-23T15:16:30;96613.13;;;13.41
79089;BMP280;68489;50.286;9.452;2023-03-23T15:19:03;96592.78;;;13.50
79089;BMP280;68489;50.286;9.452;2023-03-23T15:21:46;96611.19;;;13.42
79089;BMP280;68489;50.286;9.452;2023-03-23T15:24:21;96623.53;;;13.39
79089;BMP280;68489;50.286;9.452;2023-03-23T15:26:48;96605.59;;;13.20
79089;BMP280;68489;50.286;9.452;2023-03-23T15:31:43;96614.22;;;13.29
79089;BMP280;68489;50.286;9.452;2023-03-23T15:34:28;96601.66;;;13.09
79089;BMP280;68489;50.286;9.452;2023-03-23T15:36:58;96604.63;;;13.17
79089;BMP280;68489;50.286;9.452;2023-03-23T15:39:24;96606.97;;;13.09
79089;BMP280;68489;50.286;9.452;2023-03-23T15:41:50;96613.34;;;13.18
79089;BMP280;68489;50.286;9.452;2023-03-23T15:44:31;96609.22;;;13.16